sensor_id;sensor_type;location;lat;lon;timestamp;temperature;humidity
16879;DHT22;8556;52.218;9.884;2023-02-26T00:00:00;0.00;99.90
16879;DHT22;8556;52.218;9.884;2023-02-26T00:02:32;0.00;99.90
16879;DHT22;8556;52.218;9.884;2023-02-26T00:05:01;0.00;99.90
16879;DHT22;8556;52.218;9.884;2023-02-26T00:07:28;-0.10;99.90
16879;DHT22;8556;52.218;9.884;2023-02-26T00:09:55;-0.10;99.90
16879;DHT22;8556;52.218;9.884;2023-02-26T00:12:23;-0.10;99.90
16879;DHT22;8556;52.218;9.884;2023-02-26T00:14:51;0.20;99.90
16879;DHT22;8556;52.218;9.884;2023-02-26T00:17:36;0.10;99.90
16879;DHT22;8556;52.218;9.884;2023-02-26T00:20:06;0.00;99.90
16879;DHT22;8556;52.218;9.884;2023-02-26T00:22:34;0.00;99.90
16879;DHT22;8556;52.218;9.884;2023-02-26T00:25:00;-0.10;99.90
16879;DHT22;8556;52.218;9.884;2023-02-26T00:27:29;-0.10;99.90
16879;DHT22;8556;52.218;9.884;2023-02-26T00:29:56;0.00;99.90
16879;DHT22;8556;52.218;9.884;2023-02-26T00:32:23;0.00;99.90
16879;DHT22;8556;52.218;9.884;2023-02-26T00:34:51;0.00;99.90
16879;DHT22;8556;52.218;9.884;2023-02-26T00:37:26;0.10;99.90
16879;DHT22;8556;52.218;9.884;2023-02-26T00:40:06;0.10;99.90
16879;DHT22;8556;52.218;9.884;2023-02-26T00:42:38;0.10;99.90
16879;DHT22;8556;52.218;9.884;2023-02-26T00:45:06;0.10;99.90
16879;DHT22;8556;52.218;9.884;2023-02-26T00:47:39;0.10;99.90
16879;DHT22;8556;52.218;9.884;2023-02-26T00:50:13;0.10;99.90
16879;DHT22;8556;52.218;9.884;2023-02-26T00:52:48;0.20;99.90
16879;DHT22;8556;52.218;9.884;2023-02-26T00:55:18;0.20;99.90
16879;DHT22;8556;52.218;9.884;2023-02-26T00:57:46;0.10;99.90
16879;DHT22;8556;52.218;9.884;2023-02-26T01:00:14;0.10;99.90
16879;DHT22;8556;52.218;9.884;2023-02-26T01:02:42;0.20;99.90
16879;DHT22;8556;52.218;9.884;2023-02-26T01:05:10;0.20;99.90
16879;DHT22;8556;52.218;9.884;2023-02-26T01:07:41;0.30;99.90
16879;DHT22;8556;52.218;9.884;2023-02-26T01:10:10;0.20;99.90
16879;DHT22;8556;52.218;9.884;2023-02-26T01:12:38;0.20;99.90
16879;DHT22;8556;52.218;9.884;2023-02-26T01:15:07;0.30;99.90
16879;DHT22;8556;52.218;9.884;2023-02-26T01:17:39;0.20;99.90
16879;DHT22;8556;52.218;9.884;2023-02-26T01:20:10;0.30;99.90
16879;DHT22;8556;52.218;9.884;2023-02-26T01:22:44;0.20;99.90
16879;DHT22;8556;52.218;9.884;2023-02-26T01:25:17;0.30;99.90
16879;DHT22;8556;52.218;9.884;2023-02-26T01:27:44;0.20;99.90
16879;DHT22;8556;52.218;9.884;2023-02-26T01:30:13;0.20;99.90
16879;DHT22;8556;52.218;9.884;2023-02-26T01:32:43;0.20;99.90
16879;DHT22;8556;52.218;9.884;2023-02-26T01:35:20;0.20;99.90
16879;DHT22;8556;52.218;9.884;2023-02-26T01:37:54;0.20;99.90
16879;DHT22;8556;52.218;9.884;2023-02-26T01:40:40;0.20;99.90
16879;DHT22;8556;52.218;9.884;2023-02-26T01:43:15;0.30;99.90
16879;DHT22;8556;52.218;9.884;2023-02-26T01:45:54;0.20;99.90
16879;DHT22;8556;52.218;9.884;2023-02-26T01:48:33;0.40;99.90
16879;DHT22;8556;52.218;9.884;2023-02-26T01:51:01;0.20;99.90
16879;DHT22;8556;52.218;9.884;2023-02-26T01:53:28;0.20;99.90
16879;DHT22;8556;52.218;9.884;2023-02-26T01:55:57;0.20;99.90
16879;DHT22;8556;52.218;9.884;2023-02-26T01:58:28;0.20;99.90
16879;DHT22;8556;52.218;9.884;2023-02-26T02:00:57;0.10;99.90
16879;DHT22;8556;52.218;9.884;2023-02-26T02:03:25;0.10;99.90
16879;DHT22;8556;52.218;9.884;2023-02-26T02:05:55;0.20;99.90
16879;DHT22;8556;52.218;9.884;2023-02-26T02:08:24;0.10;99.90
16879;DHT22;8556;52.218;9.884;2023-02-26T02:10:51;0.10;99.90
16879;DHT22;8556;52.218;9.884;2023-02-26T02:13:29;0.10;99.90
16879;DHT22;8556;52.218;9.884;2023-02-26T02:16:10;0.10;99.90
16879;DHT22;8556;52.218;9.884;2023-02-26T02:18:46;0.10;99.90
16879;DHT22;8556;52.218;9.884;2023-02-26T02:21:44;0.10;99.90
16879;DHT22;8556;52.218;9.884;2023-02-26T02:24:15;0.10;99.90
16879;DHT22;8556;52.218;9.884;2023-02-26T02:26:57;0.10;99.90
16879;DHT22;8556;52.218;9.884;2023-02-26T02:29:40;0.10;99.90
16879;DHT22;8556;52.218;9.884;2023-02-26T02:32:17;0.10;99.90
16879;DHT22;8556;52.218;9.884;2023-02-26T02:34:50;0.00;99.90
16879;DHT22;8556;52.218;9.884;2023-02-26T02:37:21;0.10;99.90
16879;DHT22;8556;52.218;9.884;2023-02-26T02:39:53;0.00;99.90
16879;DHT22;8556;52.218;9.884;2023-02-26T02:42:25;0.00;99.90
16879;DHT22;8556;52.218;9.884;2023-02-26T02:44:56;0.00;99.90
16879;DHT22;8556;52.218;9.884;2023-02-26T02:47:27;0.10;99.90
16879;DHT22;8556;52.218;9.884;2023-02-26T02:50:00;0.00;99.90
16879;DHT22;8556;52.218;9.884;2023-02-26T02:52:34;0.00;99.90
16879;DHT22;8556;52.218;9.884;2023-02-26T02:55:06;0.00;99.90
16879;DHT22;8556;52.218;9.884;2023-02-26T02:57:37;0.00;99.90
16879;DHT22;8556;52.218;9.884;2023-02-26T03:00:07;0.00;99.90
16879;DHT22;8556;52.218;9.884;2023-02-26T03:02:40;0.00;99.90
16879;DHT22;8556;52.218;9.884;2023-02-26T03:05:09;0.00;99.90
16879;DHT22;8556;52.218;9.884;2023-02-26T03:07:42;0.00;99.90
16879;DHT22;8556;52.218;9.884;2023-02-26T03:10:10;0.00;99.90
16879;DHT22;8556;52.218;9.884;2023-02-26T03:12:38;0.10;99.90
16879;DHT22;8556;52.218;9.884;2023-02-26T03:15:06;0.10;99.90
16879;DHT22;8556;52.218;9.884;2023-02-26T03:17:42;0.10;99.90
16879;DHT22;8556;52.218;9.884;2023-02-26T03:20:18;0.00;99.90
16879;DHT22;8556;52.218;9.884;2023-02-26T03:22:56;-0.10;99.90
16879;DHT22;8556;52.218;9.884;2023-02-26T03:25:28;0.00;99.90
16879;DHT22;8556;52.218;9.884;2023-02-26T03:27:59;0.00;99.90
16879;DHT22;8556;52.218;9.884;2023-02-26T03:30:34;0.00;99.90
16879;DHT22;8556;52.218;9.884;2023-02-26T03:33:11;0.00;99.90
16879;DHT22;8556;52.218;9.884;2023-02-26T03:35:46;0.00;99.90
16879;DHT22;8556;52.218;9.884;2023-02-26T03:38:21;0.10;99.90
16879;DHT22;8556;52.218;9.884;2023-02-26T03:40:54;0.00;99.90
16879;DHT22;8556;52.218;9.884;2023-02-26T03:43:27;0.10;99.90
16879;DHT22;8556;52.218;9.884;2023-02-26T03:45:59;0.20;99.90
16879;DHT22;8556;52.218;9.884;2023-02-26T03:48:30;0.10;99.90
16879;DHT22;8556;52.218;9.884;2023-02-26T03:51:03;0.10;99.90
16879;DHT22;8556;52.218;9.884;2023-02-26T03:53:33;0.10;99.90
16879;DHT22;8556;52.218;9.884;2023-02-26T03:56:05;0.10;99.90
16879;DHT22;8556;52.218;9.884;2023-02-26T03:58:33;0.20;99.90
16879;DHT22;8556;52.218;9.884;2023-02-26T04:01:03;0.10;99.90
16879;DHT22;8556;52.218;9.884;2023-02-26T04:03:38;0.10;99.90
16879;DHT22;8556;52.218;9.884;2023-02-26T04:06:06;0.20;99.90
16879;DHT22;8556;52.218;9.884;2023-02-26T04:08:34;0.20;99.90
16879;DHT22;8556;52.218;9.884;2023-02-26T04:11:05;0.20;99.90
16879;DHT22;8556;52.218;9.884;2023-02-26T04:13:33;0.10;99.90
16879;DHT22;8556;52.218;9.884;2023-02-26T04:16:00;0.20;99.90
16879;DHT22;8556;52.218;9.884;2023-02-26T04:18:27;0.20;99.90
16879;DHT22;8556;52.218;9.884;2023-02-26T04:20:55;0.20;99.90
16879;DHT22;8556;52.218;9.884;2023-02-26T04:23:22;0.20;99.90
16879;DHT22;8556;52.218;9.884;2023-02-26T04:25:49;0.20;99.90
16879;DHT22;8556;52.218;9.884;2023-02-26T04:28:16;0.20;99.90
16879;DHT22;8556;52.218;9.884;2023-02-26T04:30:43;0.20;99.90
16879;DHT22;8556;52.218;9.884;2023-02-26T04:33:10;0.20;99.90
16879;DHT22;8556;52.218;9.884;2023-02-26T04:35:38;0.20;99.90
16879;DHT22;8556;52.218;9.884;2023-02-26T04:38:06;0.10;99.90
16879;DHT22;8556;52.218;9.884;2023-02-26T04:40:33;0.20;99.90
16879;DHT22;8556;52.218;9.884;2023-02-26T04:43:00;0.30;99.90
16879;DHT22;8556;52.218;9.884;2023-02-26T04:45:27;0.30;99.90
16879;DHT22;8556;52.218;9.884;2023-02-26T04:47:54;0.30;99.90
16879;DHT22;8556;52.218;9.884;2023-02-26T04:50:21;0.30;99.90
16879;DHT22;8556;52.218;9.884;2023-02-26T04:52:48;0.30;99.90
16879;DHT22;8556;52.218;9.884;2023-02-26T04:55:16;0.30;99.90
16879;DHT22;8556;52.218;9.884;2023-02-26T04:57:43;0.30;99.90
16879;DHT22;8556;52.218;9.884;2023-02-26T05:00:11;0.30;99.90
16879;DHT22;8556;52.218;9.884;2023-02-26T05:02:38;0.30;99.90
16879;DHT22;8556;52.218;9.884;2023-02-26T05:05:05;0.30;99.90
16879;DHT22;8556;52.218;9.884;2023-02-26T05:07:32;0.30;99.90
16879;DHT22;8556;52.218;9.884;2023-02-26T05:09:59;0.30;99.90
16879;DHT22;8556;52.218;9.884;2023-02-26T05:12:27;0.30;99.90
16879;DHT22;8556;52.218;9.884;2023-02-26T05:14:54;0.30;99.90
16879;DHT22;8556;52.218;9.884;2023-02-26T05:17:21;0.30;99.90
16879;DHT22;8556;52.218;9.884;2023-02-26T05:19:47;0.30;99.90
16879;DHT22;8556;52.218;9.884;2023-02-26T05:22:14;0.30;99.90
16879;DHT22;8556;52.218;9.884;2023-02-26T05:24:42;0.30;99.90
16879;DHT22;8556;52.218;9.884;2023-02-26T05:27:09;0.30;99.90
16879;DHT22;8556;52.218;9.884;2023-02-26T05:29:37;0.30;99.90
16879;DHT22;8556;52.218;9.884;2023-02-26T05:32:06;0.30;99.90
16879;DHT22;8556;52.218;9.884;2023-02-26T05:34:33;0.30;99.90
16879;DHT22;8556;52.218;9.884;2023-02-26T05:37:00;0.30;99.90
16879;DHT22;8556;52.218;9.884;2023-02-26T05:39:27;0.30;99.90
16879;DHT22;8556;52.218;9.884;2023-02-26T05:41:55;0.30;99.90
16879;DHT22;8556;52.218;9.884;2023-02-26T05:44:22;0.30;99.90
16879;DHT22;8556;52.218;9.884;2023-02-26T05:46:50;0.50;99.90
16879;DHT22;8556;52.218;9.884;2023-02-26T05:49:17;0.40;99.90
16879;DHT22;8556;52.218;9.884;2023-02-26T05:51:44;0.40;99.90
16879;DHT22;8556;52.218;9.884;2023-02-26T05:54:11;0.40;99.90
16879;DHT22;8556;52.218;9.884;2023-02-26T05:56:37;0.40;99.90
16879;DHT22;8556;52.218;9.884;2023-02-26T05:59:04;0.30;99.90
16879;DHT22;8556;52.218;9.884;2023-02-26T06:01:31;0.30;99.90
16879;DHT22;8556;52.218;9.884;2023-02-26T06:04:00;0.20;99.90
16879;DHT22;8556;52.218;9.884;2023-02-26T06:06:26;0.20;99.90
16879;DHT22;8556;52.218;9.884;2023-02-26T06:08:53;0.10;99.90
16879;DHT22;8556;52.218;9.884;2023-02-26T06:11:20;0.10;99.90
16879;DHT22;8556;52.218;9.884;2023-02-26T06:13:47;0.10;99.90
16879;DHT22;8556;52.218;9.884;2023-02-26T06:16:14;0.10;99.90
16879;DHT22;8556;52.218;9.884;2023-02-26T06:18:40;0.00;99.90
16879;DHT22;8556;52.218;9.884;2023-02-26T06:21:09;0.10;99.90
16879;DHT22;8556;52.218;9.884;2023-02-26T06:23:35;0.00;99.90
16879;DHT22;8556;52.218;9.884;2023-02-26T06:26:02;0.00;99.90
16879;DHT22;8556;52.218;9.884;2023-02-26T06:28:29;0.00;99.90
16879;DHT22;8556;52.218;9.884;2023-02-26T06:30:56;0.00;99.90
16879;DHT22;8556;52.218;9.884;2023-02-26T06:33:23;-0.10;99.90
16879;DHT22;8556;52.218;9.884;2023-02-26T06:35:50;-0.10;99.90
16879;DHT22;8556;52.218;9.884;2023-02-26T06:38:19;-0.10;99.90
16879;DHT22;8556;52.218;9.884;2023-02-26T06:40:46;-0.10;99.90
16879;DHT22;8556;52.218;9.884;2023-02-26T06:43:13;-0.10;99.90
16879;DHT22;8556;52.218;9.884;2023-02-26T06:45:40;-0.20;99.90
16879;DHT22;8556;52.218;9.884;2023-02-26T06:48:09;-0.20;99.90
16879;DHT22;8556;52.218;9.884;2023-02-26T06:50:36;-0.20;99.90
16879;DHT22;8556;52.218;9.884;2023-02-26T06:53:04;-0.20;99.90
16879;DHT22;8556;52.218;9.884;2023-02-26T06:55:32;-0.30;99.90
16879;DHT22;8556;52.218;9.884;2023-02-26T06:57:59;-0.30;99.90
16879;DHT22;8556;52.218;9.884;2023-02-26T07:00:26;-0.30;99.90
16879;DHT22;8556;52.218;9.884;2023-02-26T07:02:53;-0.30;99.90
16879;DHT22;8556;52.218;9.884;2023-02-26T07:05:20;-0.30;99.90
16879;DHT22;8556;52.218;9.884;2023-02-26T07:07:46;-0.40;99.90
16879;DHT22;8556;52.218;9.884;2023-02-26T07:10:13;-0.40;99.90
16879;DHT22;8556;52.218;9.884;2023-02-26T07:12:41;-0.40;99.90
16879;DHT22;8556;52.218;9.884;2023-02-26T07:15:09;-0.40;99.90
16879;DHT22;8556;52.218;9.884;2023-02-26T07:17:35;-0.30;99.90
16879;DHT22;8556;52.218;9.884;2023-02-26T07:20:03;-0.20;99.90
16879;DHT22;8556;52.218;9.884;2023-02-26T07:22:35;-0.30;99.90
16879;DHT22;8556;52.218;9.884;2023-02-26T07:25:02;-0.20;99.90
16879;DHT22;8556;52.218;9.884;2023-02-26T07:27:29;0.00;99.90
16879;DHT22;8556;52.218;9.884;2023-02-26T07:29:59;0.00;99.90
16879;DHT22;8556;52.218;9.884;2023-02-26T07:32:26;0.20;99.90
16879;DHT22;8556;52.218;9.884;2023-02-26T07:34:53;0.30;99.90
16879;DHT22;8556;52.218;9.884;2023-02-26T07:37:20;0.40;99.90
16879;DHT22;8556;52.218;9.884;2023-02-26T07:39:47;0.80;99.90
16879;DHT22;8556;52.218;9.884;2023-02-26T07:42:14;1.00;99.90
16879;DHT22;8556;52.218;9.884;2023-02-26T07:44:40;1.50;99.90
16879;DHT22;8556;52.218;9.884;2023-02-26T07:47:09;2.10;99.90
16879;DHT22;8556;52.218;9.884;2023-02-26T07:49:36;3.00;99.90
16879;DHT22;8556;52.218;9.884;2023-02-26T07:52:03;2.10;99.90
16879;DHT22;8556;52.218;9.884;2023-02-26T07:54:32;1.40;99.90
16879;DHT22;8556;52.218;9.884;2023-02-26T07:56:58;1.50;99.90
16879;DHT22;8556;52.218;9.884;2023-02-26T07:59:25;1.60;99.90
16879;DHT22;8556;52.218;9.884;2023-02-26T08:01:52;2.10;99.90
16879;DHT22;8556;52.218;9.884;2023-02-26T08:04:20;1.70;99.90
16879;DHT22;8556;52.218;9.884;2023-02-26T08:06:47;1.40;99.90
16879;DHT22;8556;52.218;9.884;2023-02-26T08:09:14;1.50;99.90
16879;DHT22;8556;52.218;9.884;2023-02-26T08:11:41;1.50;99.90
16879;DHT22;8556;52.218;9.884;2023-02-26T08:14:09;1.30;99.90
16879;DHT22;8556;52.218;9.884;2023-02-26T08:16:36;1.80;99.90
16879;DHT22;8556;52.218;9.884;2023-02-26T08:19:03;1.10;99.90
16879;DHT22;8556;52.218;9.884;2023-02-26T08:21:31;0.80;99.90
16879;DHT22;8556;52.218;9.884;2023-02-26T08:23:58;1.50;99.90
16879;DHT22;8556;52.218;9.884;2023-02-26T08:26:25;2.10;99.90
16879;DHT22;8556;52.218;9.884;2023-02-26T08:28:54;2.50;99.90
16879;DHT22;8556;52.218;9.884;2023-02-26T08:31:20;2.30;1.00
16879;DHT22;8556;52.218;9.884;2023-02-26T08:33:47;2.30;99.90
16879;DHT22;8556;52.218;9.884;2023-02-26T08:36:14;3.00;1.00
16879;DHT22;8556;52.218;9.884;2023-02-26T08:38:42;3.50;1.00
16879;DHT22;8556;52.218;9.884;2023-02-26T08:41:09;3.60;1.00
16879;DHT22;8556;52.218;9.884;2023-02-26T08:43:36;3.40;1.00
16879;DHT22;8556;52.218;9.884;2023-02-26T08:46:03;3.10;1.00
16879;DHT22;8556;52.218;9.884;2023-02-26T08:48:30;2.90;1.00
16879;DHT22;8556;52.218;9.884;2023-02-26T08:50:57;2.20;1.00
16879;DHT22;8556;52.218;9.884;2023-02-26T08:53:24;2.40;1.00
16879;DHT22;8556;52.218;9.884;2023-02-26T08:55:52;2.10;1.00
16879;DHT22;8556;52.218;9.884;2023-02-26T08:58:19;2.60;1.00
16879;DHT22;8556;52.218;9.884;2023-02-26T09:00:46;2.60;1.00
16879;DHT22;8556;52.218;9.884;2023-02-26T09:03:13;2.40;1.00
16879;DHT22;8556;52.218;9.884;2023-02-26T09:05:40;2.70;1.00
16879;DHT22;8556;52.218;9.884;2023-02-26T09:08:08;2.50;1.00
16879;DHT22;8556;52.218;9.884;2023-02-26T09:10:36;2.20;1.00
16879;DHT22;8556;52.218;9.884;2023-02-26T09:13:04;2.00;1.00
16879;DHT22;8556;52.218;9.884;2023-02-26T09:15:31;2.40;1.00
16879;DHT22;8556;52.218;9.884;2023-02-26T09:17:58;2.40;1.00
16879;DHT22;8556;52.218;9.884;2023-02-26T09:20:25;2.80;1.00
16879;DHT22;8556;52.218;9.884;2023-02-26T09:22:52;2.80;1.00
16879;DHT22;8556;52.218;9.884;2023-02-26T09:25:19;2.80;1.00
16879;DHT22;8556;52.218;9.884;2023-02-26T09:27:46;3.00;99.90
16879;DHT22;8556;52.218;9.884;2023-02-26T09:30:15;2.90;99.90
16879;DHT22;8556;52.218;9.884;2023-02-26T09:32:42;2.80;99.90
16879;DHT22;8556;52.218;9.884;2023-02-26T09:35:09;3.10;99.90
16879;DHT22;8556;52.218;9.884;2023-02-26T09:37:37;3.20;99.90
16879;DHT22;8556;52.218;9.884;2023-02-26T09:40:05;3.20;1.00
16879;DHT22;8556;52.218;9.884;2023-02-26T09:42:47;3.00;1.00
16879;DHT22;8556;52.218;9.884;2023-02-26T09:45:23;3.50;99.90
16879;DHT22;8556;52.218;9.884;2023-02-26T09:47:52;3.30;1.00
16879;DHT22;8556;52.218;9.884;2023-02-26T09:50:24;3.00;1.00
16879;DHT22;8556;52.218;9.884;2023-02-26T09:52:54;3.00;1.00
16879;DHT22;8556;52.218;9.884;2023-02-26T09:55:27;3.20;59.90
16879;DHT22;8556;52.218;9.884;2023-02-26T09:57:57;3.20;1.00
16879;DHT22;8556;52.218;9.884;2023-02-26T10:00:31;3.20;1.00
16879;DHT22;8556;52.218;9.884;2023-02-26T10:03:08;3.10;1.00
16879;DHT22;8556;52.218;9.884;2023-02-26T10:05:42;3.30;1.00
16879;DHT22;8556;52.218;9.884;2023-02-26T10:08:13;3.10;1.00
16879;DHT22;8556;52.218;9.884;2023-02-26T10:10:49;3.30;1.00
16879;DHT22;8556;52.218;9.884;2023-02-26T10:13:21;3.40;99.90
16879;DHT22;8556;52.218;9.884;2023-02-26T10:15:51;3.40;1.00
16879;DHT22;8556;52.218;9.884;2023-02-26T10:18:22;3.40;99.90
16879;DHT22;8556;52.218;9.884;2023-02-26T10:20:54;3.40;93.20
16879;DHT22;8556;52.218;9.884;2023-02-26T10:23:25;3.40;42.40
16879;DHT22;8556;52.218;9.884;2023-02-26T10:25:57;3.80;99.90
16879;DHT22;8556;52.218;9.884;2023-02-26T10:28:42;3.90;1.00
16879;DHT22;8556;52.218;9.884;2023-02-26T10:31:20;3.70;1.00
16879;DHT22;8556;52.218;9.884;2023-02-26T10:33:55;3.60;1.00
16879;DHT22;8556;52.218;9.884;2023-02-26T10:36:26;3.70;1.00
16879;DHT22;8556;52.218;9.884;2023-02-26T10:38:59;4.10;1.00
16879;DHT22;8556;52.218;9.884;2023-02-26T10:41:30;4.50;1.00
16879;DHT22;8556;52.218;9.884;2023-02-26T10:44:04;3.50;1.00
16879;DHT22;8556;52.218;9.884;2023-02-26T10:46:42;4.00;1.00
16879;DHT22;8556;52.218;9.884;2023-02-26T10:49:29;4.40;1.00
16879;DHT22;8556;52.218;9.884;2023-02-26T10:52:00;4.70;1.00
16879;DHT22;8556;52.218;9.884;2023-02-26T10:54:34;4.40;1.00
16879;DHT22;8556;52.218;9.884;2023-02-26T10:57:02;3.90;1.00
16879;DHT22;8556;52.218;9.884;2023-02-26T10:59:30;4.30;1.00
16879;DHT22;8556;52.218;9.884;2023-02-26T11:01:59;4.10;1.00
16879;DHT22;8556;52.218;9.884;2023-02-26T11:04:26;4.30;1.00
16879;DHT22;8556;52.218;9.884;2023-02-26T11:06:55;4.40;1.00
16879;DHT22;8556;52.218;9.884;2023-02-26T11:09:24;4.40;1.00
16879;DHT22;8556;52.218;9.884;2023-02-26T11:11:53;4.90;1.00
16879;DHT22;8556;52.218;9.884;2023-02-26T11:14:20;4.80;1.00
16879;DHT22;8556;52.218;9.884;2023-02-26T11:16:49;4.10;99.90
16879;DHT22;8556;52.218;9.884;2023-02-26T11:19:26;4.10;1.00
16879;DHT22;8556;52.218;9.884;2023-02-26T11:21:54;5.00;1.00
16879;DHT22;8556;52.218;9.884;2023-02-26T11:24:28;4.90;99.90
16879;DHT22;8556;52.218;9.884;2023-02-26T11:26:57;4.50;99.90
16879;DHT22;8556;52.218;9.884;2023-02-26T11:29:34;3.60;99.90
16879;DHT22;8556;52.218;9.884;2023-02-26T11:32:03;4.10;99.90
16879;DHT22;8556;52.218;9.884;2023-02-26T11:34:31;4.60;99.90
16879;DHT22;8556;52.218;9.884;2023-02-26T11:37:00;4.50;99.90
16879;DHT22;8556;52.218;9.884;2023-02-26T11:39:29;4.40;99.90
16879;DHT22;8556;52.218;9.884;2023-02-26T11:42:00;4.00;99.90
16879;DHT22;8556;52.218;9.884;2023-02-26T11:44:34;4.20;99.90
16879;DHT22;8556;52.218;9.884;2023-02-26T11:47:04;4.40;99.90
16879;DHT22;8556;52.218;9.884;2023-02-26T11:49:33;4.90;99.90
16879;DHT22;8556;52.218;9.884;2023-02-26T11:52:19;4.30;99.90
16879;DHT22;8556;52.218;9.884;2023-02-26T11:54:49;4.50;99.90
16879;DHT22;8556;52.218;9.884;2023-02-26T11:57:22;4.80;99.90
16879;DHT22;8556;52.218;9.884;2023-02-26T11:59:51;4.40;99.90
16879;DHT22;8556;52.218;9.884;2023-02-26T12:02:20;4.80;99.90
16879;DHT22;8556;52.218;9.884;2023-02-26T12:04:51;4.70;99.90
16879;DHT22;8556;52.218;9.884;2023-02-26T12:07:19;4.90;99.90
16879;DHT22;8556;52.218;9.884;2023-02-26T12:09:47;5.20;99.90
16879;DHT22;8556;52.218;9.884;2023-02-26T12:12:29;5.00;99.90
16879;DHT22;8556;52.218;9.884;2023-02-26T12:15:22;4.70;88.80
16879;DHT22;8556;52.218;9.884;2023-02-26T12:18:04;4.20;1.00
16879;DHT22;8556;52.218;9.884;2023-02-26T12:20:44;4.50;12.20
16879;DHT22;8556;52.218;9.884;2023-02-26T12:23:29;4.80;56.00
16879;DHT22;8556;52.218;9.884;2023-02-26T12:26:12;5.50;99.90
16879;DHT22;8556;52.218;9.884;2023-02-26T12:29:03;5.80;99.90
16879;DHT22;8556;52.218;9.884;2023-02-26T12:31:55;5.30;27.80
16879;DHT22;8556;52.218;9.884;2023-02-26T12:34:48;4.90;1.00
16879;DHT22;8556;52.218;9.884;2023-02-26T12:37:32;4.60;1.00
16879;DHT22;8556;52.218;9.884;2023-02-26T12:40:10;4.80;1.00
16879;DHT22;8556;52.218;9.884;2023-02-26T12:42:48;4.90;1.00
16879;DHT22;8556;52.218;9.884;2023-02-26T12:45:30;4.60;1.00
16879;DHT22;8556;52.218;9.884;2023-02-26T12:48:32;4.80;1.00
16879;DHT22;8556;52.218;9.884;2023-02-26T12:51:08;5.40;1.00
16879;DHT22;8556;52.218;9.884;2023-02-26T12:54:07;5.10;1.00
16879;DHT22;8556;52.218;9.884;2023-02-26T12:56:52;7.20;99.90
16879;DHT22;8556;52.218;9.884;2023-02-26T12:59:39;7.50;99.90
16879;DHT22;8556;52.218;9.884;2023-02-26T13:02:38;8.20;99.90
16879;DHT22;8556;52.218;9.884;2023-02-26T13:05:18;7.50;99.90
16879;DHT22;8556;52.218;9.884;2023-02-26T13:08:10;7.80;99.90
16879;DHT22;8556;52.218;9.884;2023-02-26T13:10:50;7.90;99.90
16879;DHT22;8556;52.218;9.884;2023-02-26T13:13:44;6.30;1.00
16879;DHT22;8556;52.218;9.884;2023-02-26T13:16:24;5.40;1.00
16879;DHT22;8556;52.218;9.884;2023-02-26T13:18:57;5.70;1.00
16879;DHT22;8556;52.218;9.884;2023-02-26T13:21:30;5.60;1.00
16879;DHT22;8556;52.218;9.884;2023-02-26T13:24:02;5.60;1.00
16879;DHT22;8556;52.218;9.884;2023-02-26T13:26:32;5.10;1.00
16879;DHT22;8556;52.218;9.884;2023-02-26T13:29:04;5.00;1.00
16879;DHT22;8556;52.218;9.884;2023-02-26T13:31:35;5.10;1.00
16879;DHT22;8556;52.218;9.884;2023-02-26T13:34:10;5.10;1.00
16879;DHT22;8556;52.218;9.884;2023-02-26T13:36:38;5.20;1.00
16879;DHT22;8556;52.218;9.884;2023-02-26T13:39:20;5.00;1.00
16879;DHT22;8556;52.218;9.884;2023-02-26T13:41:57;5.30;1.00
16879;DHT22;8556;52.218;9.884;2023-02-26T13:44:31;5.00;1.00
16879;DHT22;8556;52.218;9.884;2023-02-26T13:47:12;5.00;1.00
16879;DHT22;8556;52.218;9.884;2023-02-26T13:49:53;5.40;1.00
16879;DHT22;8556;52.218;9.884;2023-02-26T13:52:25;5.20;1.00
16879;DHT22;8556;52.218;9.884;2023-02-26T13:54:53;5.40;1.00
16879;DHT22;8556;52.218;9.884;2023-02-26T13:57:34;5.30;1.00
16879;DHT22;8556;52.218;9.884;2023-02-26T14:00:08;5.40;1.00
16879;DHT22;8556;52.218;9.884;2023-02-26T14:02:47;5.20;1.00
16879;DHT22;8556;52.218;9.884;2023-02-26T14:05:35;5.30;1.00
16879;DHT22;8556;52.218;9.884;2023-02-26T14:08:44;5.10;1.00
16879;DHT22;8556;52.218;9.884;2023-02-26T14:14:23;5.10;1.00
16879;DHT22;8556;52.218;9.884;2023-02-26T14:17:18;5.10;1.00
16879;DHT22;8556;52.218;9.884;2023-02-26T14:20:17;5.20;1.00
16879;DHT22;8556;52.218;9.884;2023-02-26T14:22:47;5.10;1.00
16879;DHT22;8556;52.218;9.884;2023-02-26T14:25:19;5.10;1.00
16879;DHT22;8556;52.218;9.884;2023-02-26T14:27:49;5.00;1.00
16879;DHT22;8556;52.218;9.884;2023-02-26T14:30:26;5.10;1.00
16879;DHT22;8556;52.218;9.884;2023-02-26T14:33:05;5.00;1.00
16879;DHT22;8556;52.218;9.884;2023-02-26T14:35:34;4.70;1.00
16879;DHT22;8556;52.218;9.884;2023-02-26T14:38:07;4.70;1.00
16879;DHT22;8556;52.218;9.884;2023-02-26T14:40:39;4.80;1.00
16879;DHT22;8556;52.218;9.884;2023-02-26T14:43:13;4.90;1.00
16879;DHT22;8556;52.218;9.884;2023-02-26T14:45:43;4.90;1.00
16879;DHT22;8556;52.218;9.884;2023-02-26T14:48:13;4.70;1.00
16879;DHT22;8556;52.218;9.884;2023-02-26T14:50:48;4.70;1.00
16879;DHT22;8556;52.218;9.884;2023-02-26T14:53:42;4.60;1.00
16879;DHT22;8556;52.218;9.884;2023-02-26T14:56:18;4.60;1.00
16879;DHT22;8556;52.218;9.884;2023-02-26T14:58:58;4.70;1.00
16879;DHT22;8556;52.218;9.884;2023-02-26T15:01:37;4.70;1.00
16879;DHT22;8556;52.218;9.884;2023-02-26T15:07:10;4.70;1.00
16879;DHT22;8556;52.218;9.884;2023-02-26T15:09:49;4.70;1.00
16879;DHT22;8556;52.218;9.884;2023-02-26T15:12:30;4.50;1.00
16879;DHT22;8556;52.218;9.884;2023-02-26T15:15:18;4.40;1.00
16879;DHT22;8556;52.218;9.884;2023-02-26T15:18:00;4.20;99.90
16879;DHT22;8556;52.218;9.884;2023-02-26T15:20:39;4.20;1.00
16879;DHT22;8556;52.218;9.884;2023-02-26T15:23:29;4.30;1.00
16879;DHT22;8556;52.218;9.884;2023-02-26T15:26:06;4.40;99.90
16879;DHT22;8556;52.218;9.884;2023-02-26T15:28:37;4.30;99.90
16879;DHT22;8556;52.218;9.884;2023-02-26T15:31:05;4.20;99.90
16879;DHT22;8556;52.218;9.884;2023-02-26T15:33:34;4.20;99.90
16879;DHT22;8556;52.218;9.884;2023-02-26T15:36:05;4.20;99.90
16879;DHT22;8556;52.218;9.884;2023-02-26T15:38:44;4.10;99.90
16879;DHT22;8556;52.218;9.884;2023-02-26T15:41:11;4.10;99.90
16879;DHT22;8556;52.218;9.884;2023-02-26T15:43:41;4.00;99.90
16879;DHT22;8556;52.218;9.884;2023-02-26T15:46:13;4.00;99.90
16879;DHT22;8556;52.218;9.884;2023-02-26T15:48:43;4.00;1.00
16879;DHT22;8556;52.218;9.884;2023-02-26T15:51:16;4.00;1.00
16879;DHT22;8556;52.218;9.884;2023-02-26T15:53:47;4.10;99.90
16879;DHT22;8556;52.218;9.884;2023-02-26T15:56:21;4.00;99.90
16879;DHT22;8556;52.218;9.884;2023-02-26T15:58:52;4.00;1.00
16879;DHT22;8556;52.218;9.884;2023-02-26T16:01:22;4.00;1.00
16879;DHT22;8556;52.218;9.884;2023-02-26T16:03:52;4.00;1.00
16879;DHT22;8556;52.218;9.884;2023-02-26T16:06:24;4.10;1.00
16879;DHT22;8556;52.218;9.884;2023-02-26T16:08:51;4.10;99.90
16879;DHT22;8556;52.218;9.884;2023-02-26T16:11:19;3.90;1.00
16879;DHT22;8556;52.218;9.884;2023-02-26T16:13:49;3.90;1.00
16879;DHT22;8556;52.218;9.884;2023-02-26T16:16:20;3.80;99.90
16879;DHT22;8556;52.218;9.884;2023-02-26T16:18:48;3.70;1.00
16879;DHT22;8556;52.218;9.884;2023-02-26T16:21:22;3.60;1.00
16879;DHT22;8556;52.218;9.884;2023-02-26T16:23:54;3.70;1.00
16879;DHT22;8556;52.218;9.884;2023-02-26T16:26:25;3.70;1.00
16879;DHT22;8556;52.218;9.884;2023-02-26T16:28:57;3.70;1.00
16879;DHT22;8556;52.218;9.884;2023-02-26T16:31:26;3.60;1.00
16879;DHT22;8556;52.218;9.884;2023-02-26T16:33:56;3.60;1.00
16879;DHT22;8556;52.218;9.884;2023-02-26T16:36:28;3.50;1.00
16879;DHT22;8556;52.218;9.884;2023-02-26T16:39:01;3.40;1.00